createdAt,value
2019-03-15T00:01:57.316Z,6.11
2019-03-15T00:04:26.763Z,6.07
2019-03-15T00:06:56.201Z,6.03
2019-03-15T00:09:25.657Z,6.16
2019-03-15T00:11:55.398Z,6.12
2019-03-15T00:14:24.934Z,6.12
2019-03-15T00:16:54.372Z,6.19
2019-03-15T00:19:23.992Z,6.16
2019-03-15T00:21:53.468Z,6.26
2019-03-15T00:24:22.917Z,6.19
2019-03-15T00:26:52.360Z,6.26
2019-03-15T00:29:21.810Z,6.28
2019-03-15T00:31:51.245Z,6.28
2019-03-15T00:34:20.686Z,6.23
2019-03-15T00:36:50.126Z,6.14
2019-03-15T00:39:19.572Z,6.00
2019-03-15T00:41:49.077Z,5.99
2019-03-15T00:44:18.524Z,5.96
2019-03-15T00:46:47.963Z,5.89
2019-03-15T00:49:17.417Z,5.80
2019-03-15T00:51:46.861Z,5.83
2019-03-15T00:54:16.287Z,5.80
2019-03-15T00:56:45.734Z,5.81
2019-03-15T00:59:15.195Z,5.79
2019-03-15T01:01:45.559Z,5.85
2019-03-15T01:04:15.393Z,5.98
2019-03-15T01:06:44.963Z,5.99
2019-03-15T01:09:14.476Z,5.98
2019-03-15T01:11:45.476Z,5.98
2019-03-15T01:14:15.259Z,5.96
2019-03-15T01:16:45.128Z,5.85
2019-03-15T01:19:14.558Z,5.83
2019-03-15T01:21:44.152Z,5.80
2019-03-15T01:24:13.605Z,5.88
2019-03-15T01:26:43.053Z,5.88
2019-03-15T01:29:13.015Z,5.88
2019-03-15T01:31:42.636Z,5.91
2019-03-15T01:34:12.060Z,5.92
2019-03-15T01:36:41.488Z,6.01
2019-03-15T01:39:10.919Z,5.99
2019-03-15T01:41:40.352Z,6.00
2019-03-15T01:44:10.082Z,5.94
2019-03-15T01:46:39.545Z,5.89
2019-03-15T01:49:08.966Z,5.97
2019-03-15T01:51:38.691Z,5.98
2019-03-15T01:54:08.423Z,5.97
2019-03-15T01:56:37.861Z,6.01
2019-03-15T01:59:07.298Z,6.02
2019-03-15T02:01:36.742Z,6.03
2019-03-15T02:04:06.659Z,6.03
2019-03-15T02:06:36.554Z,6.07
2019-03-15T02:09:09.345Z,6.06
2019-03-15T02:11:38.734Z,6.09
2019-03-15T02:14:08.551Z,6.08
2019-03-15T02:16:38.565Z,6.07
2019-03-15T02:19:08.270Z,6.12
2019-03-15T02:21:38.395Z,6.14
2019-03-15T02:24:07.991Z,6.11
2019-03-15T02:26:37.714Z,6.11
2019-03-15T02:29:07.228Z,6.12
2019-03-15T02:31:37.245Z,6.12
2019-03-15T02:34:06.764Z,6.13
2019-03-15T02:36:36.751Z,6.17
2019-03-15T02:39:06.721Z,6.10
2019-03-15T02:41:36.224Z,6.19
2019-03-15T02:44:05.811Z,6.21
2019-03-15T02:46:35.316Z,6.28
2019-03-15T02:49:04.816Z,6.35
2019-03-15T02:51:38.131Z,6.35
2019-03-15T02:54:07.567Z,6.34
2019-03-15T02:56:37.014Z,6.35
2019-03-15T02:59:06.756Z,6.33
2019-03-15T03:01:36.447Z,6.36
2019-03-15T03:04:05.880Z,6.38
2019-03-15T03:06:35.327Z,6.33
2019-03-15T03:09:07.246Z,6.33
2019-03-15T03:11:37.310Z,6.29
2019-03-15T03:14:06.742Z,6.32
2019-03-15T03:16:36.203Z,6.32
2019-03-15T03:19:05.901Z,6.36
2019-03-15T03:21:35.339Z,6.37
2019-03-15T03:24:05.138Z,6.39
2019-03-15T03:26:34.916Z,6.42
2019-03-15T03:29:04.263Z,6.44
2019-03-15T03:31:33.716Z,6.49
2019-03-15T03:34:03.145Z,6.45
2019-03-15T03:36:32.582Z,6.46
2019-03-15T03:39:02.001Z,6.48
2019-03-15T03:41:31.512Z,6.53
2019-03-15T03:44:00.952Z,6.52
2019-03-15T03:46:30.399Z,6.50
2019-03-15T03:49:00.087Z,6.47
2019-03-15T03:51:29.527Z,6.41
2019-03-15T03:53:59.298Z,6.46
2019-03-15T03:56:28.732Z,6.48
2019-03-15T03:58:58.201Z,6.51
2019-03-15T04:01:27.715Z,6.54
2019-03-15T04:03:57.173Z,6.54
2019-03-15T04:06:26.878Z,6.58
2019-03-15T04:08:56.303Z,6.59
2019-03-15T04:11:25.814Z,6.61
2019-03-15T04:13:55.237Z,6.68
2019-03-15T04:16:25.059Z,6.71
2019-03-15T04:18:54.536Z,6.74
2019-03-15T04:21:24.195Z,6.78
2019-03-15T04:23:53.623Z,6.71
2019-03-15T04:26:23.085Z,6.77
2019-03-15T04:28:52.512Z,6.74
2019-03-15T04:31:21.964Z,6.75
2019-03-15T04:33:51.771Z,6.73
2019-03-15T04:36:21.226Z,6.77
2019-03-15T04:38:50.686Z,6.70
2019-03-15T04:41:20.124Z,6.65
2019-03-15T04:43:49.560Z,6.67
2019-03-15T04:46:19.008Z,6.65
2019-03-15T04:48:48.471Z,6.67
2019-03-15T04:51:17.932Z,6.67
2019-03-15T04:53:47.366Z,6.64
2019-03-15T04:56:16.802Z,6.54
2019-03-15T04:58:46.238Z,6.57
2019-03-15T05:01:16.052Z,6.53
2019-03-15T05:03:45.501Z,6.57
2019-03-15T05:06:14.938Z,6.57
2019-03-15T05:08:44.387Z,6.57
2019-03-15T05:11:13.816Z,6.51
2019-03-15T05:13:43.274Z,6.57
2019-03-15T05:16:13.073Z,6.58
2019-03-15T05:18:42.519Z,6.62
2019-03-15T05:21:11.948Z,6.71
2019-03-15T05:23:41.825Z,6.70
2019-03-15T05:26:11.256Z,6.70
2019-03-15T05:28:40.701Z,6.83
2019-03-15T05:31:10.163Z,6.94
2019-03-15T05:33:39.679Z,6.94
2019-03-15T05:36:09.141Z,6.90
2019-03-15T05:38:38.651Z,6.87
2019-03-15T05:41:08.086Z,6.85
2019-03-15T05:43:37.536Z,6.84
2019-03-15T05:46:06.975Z,6.85
2019-03-15T05:48:37.312Z,6.92
2019-03-15T05:51:06.847Z,6.93
2019-03-15T05:53:36.555Z,7.02
2019-03-15T05:56:05.998Z,7.07
2019-03-15T05:58:35.449Z,7.10
2019-03-15T06:01:06.022Z,7.01
2019-03-15T06:03:47.988Z,6.99
2019-03-15T06:06:06.822Z,7.07
2019-03-15T06:08:36.274Z,7.16
2019-03-15T06:11:05.714Z,7.25
2019-03-15T06:13:35.173Z,7.17
2019-03-15T06:16:04.605Z,7.11
2019-03-15T06:18:34.389Z,7.10
2019-03-15T06:21:03.818Z,7.19
2019-03-15T06:23:33.653Z,7.26
2019-03-15T06:26:03.098Z,7.32
2019-03-15T06:28:32.535Z,7.42
2019-03-15T06:31:02.107Z,7.41
2019-03-15T06:33:31.548Z,7.46
2019-03-15T06:36:00.997Z,7.45
2019-03-15T06:38:33.362Z,7.42
2019-03-15T06:41:01.550Z,7.34
2019-03-15T06:43:30.998Z,7.38
2019-03-15T06:46:00.428Z,7.48
2019-03-15T06:48:29.891Z,7.47
2019-03-15T06:50:59.507Z,7.58
2019-03-15T06:53:28.955Z,7.64
2019-03-15T06:55:58.395Z,7.99
2019-03-15T06:58:27.838Z,8.50
2019-03-15T07:00:57.572Z,9.09
2019-03-15T07:03:27.064Z,9.22
2019-03-15T07:05:56.772Z,9.57
2019-03-15T07:08:26.535Z,9.64
2019-03-15T07:10:55.971Z,9.41
2019-03-15T07:13:25.419Z,9.23
2019-03-15T07:15:55.102Z,9.63
2019-03-15T07:18:24.939Z,10.15
2019-03-15T07:20:54.379Z,10.18
2019-03-15T07:23:23.855Z,9.89
2019-03-15T07:25:53.299Z,9.51
2019-03-15T07:28:22.753Z,9.50
2019-03-15T07:30:52.258Z,9.29
2019-03-15T07:33:23.176Z,9.10
2019-03-15T07:35:53.061Z,8.96
2019-03-15T07:38:22.516Z,8.73
2019-03-15T07:40:51.955Z,8.56
2019-03-15T07:43:21.433Z,8.76
2019-03-15T07:45:50.924Z,8.91
2019-03-15T07:48:22.743Z,9.10
2019-03-15T07:50:51.783Z,9.31
2019-03-15T07:53:21.600Z,9.53
2019-03-15T07:55:51.035Z,9.48
2019-03-15T07:58:20.487Z,9.66
2019-03-15T08:00:49.941Z,9.69
2019-03-15T08:03:19.408Z,9.59
2019-03-15T08:05:48.863Z,9.55
2019-03-15T08:08:18.333Z,9.38
2019-03-15T08:10:47.864Z,9.41
2019-03-15T08:13:17.646Z,9.46
2019-03-15T08:15:47.179Z,9.42
2019-03-15T08:18:16.971Z,9.61
2019-03-15T08:20:46.419Z,9.95
2019-03-15T08:23:15.879Z,10.10
2019-03-15T08:25:45.585Z,10.16
2019-03-15T08:28:15.077Z,10.37
2019-03-15T08:30:44.735Z,11.17
2019-03-15T08:33:14.186Z,11.70
2019-03-15T08:35:44.329Z,11.80
2019-03-15T08:38:13.801Z,11.74
2019-03-15T08:40:43.250Z,11.63
2019-03-15T08:43:13.051Z,11.43
2019-03-15T08:45:42.508Z,11.47
2019-03-15T08:48:11.963Z,11.12
2019-03-15T08:50:41.503Z,11.16
2019-03-15T08:53:11.286Z,11.09
2019-03-15T08:55:41.067Z,11.21
2019-03-15T08:58:15.723Z,11.43
2019-03-15T09:00:43.641Z,11.29
2019-03-15T09:03:22.825Z,11.40
2019-03-15T09:05:44.286Z,11.46
2019-03-15T09:08:13.753Z,11.97
2019-03-15T09:10:43.576Z,12.15
2019-03-15T09:13:13.197Z,12.26
2019-03-15T09:15:42.678Z,12.48
2019-03-15T09:18:12.129Z,13.10
2019-03-15T09:20:41.592Z,13.52
2019-03-15T09:23:11.288Z,13.49
2019-03-15T09:25:40.753Z,13.42
2019-03-15T09:28:10.199Z,13.56
2019-03-15T09:30:39.757Z,13.54
2019-03-15T09:33:09.467Z,13.37
2019-03-15T09:35:38.986Z,13.49
2019-03-15T09:38:10.522Z,14.23
2019-03-15T09:40:40.892Z,14.01
2019-03-15T09:43:10.311Z,14.19
2019-03-15T09:45:39.783Z,14.13
2019-03-15T09:48:09.249Z,13.56
2019-03-15T09:50:50.522Z,12.79
2019-03-15T09:53:09.895Z,12.35
2019-03-15T09:55:39.702Z,12.84
2019-03-15T09:58:09.396Z,13.13
2019-03-15T10:00:38.864Z,13.52
2019-03-15T10:03:21.188Z,14.37
2019-03-15T10:05:39.814Z,14.17
2019-03-15T10:08:09.495Z,13.81
2019-03-15T10:10:38.956Z,14.04
2019-03-15T10:13:08.404Z,14.26
2019-03-15T10:15:37.900Z,13.81
2019-03-15T10:18:07.320Z,13.33
2019-03-15T10:20:36.768Z,13.59
2019-03-15T10:23:06.677Z,14.31
2019-03-15T10:25:45.938Z,14.24
2019-03-15T10:28:07.307Z,14.85
2019-03-15T10:30:36.945Z,15.62
2019-03-15T10:33:06.682Z,15.84
2019-03-15T10:35:36.144Z,15.67
2019-03-15T10:38:05.617Z,15.26
2019-03-15T10:40:35.169Z,14.39
2019-03-15T10:43:04.627Z,13.94
2019-03-15T10:45:34.080Z,14.79
2019-03-15T10:48:03.568Z,15.49
2019-03-15T10:50:33.018Z,15.49
2019-03-15T10:53:02.826Z,14.63
2019-03-15T10:55:32.344Z,13.65
2019-03-15T10:58:02.146Z,13.46
2019-03-15T11:00:31.675Z,13.22
2019-03-15T11:03:01.131Z,12.84
2019-03-15T11:05:30.592Z,12.52
2019-03-15T11:08:00.391Z,12.32
2019-03-15T11:10:30.197Z,12.14
2019-03-15T11:12:59.726Z,12.05
2019-03-15T11:15:29.180Z,11.94
2019-03-15T11:17:58.643Z,12.14
2019-03-15T11:20:28.121Z,12.16
2019-03-15T11:22:57.586Z,12.36
2019-03-15T11:25:27.075Z,12.51
2019-03-15T11:27:56.780Z,12.71
2019-03-15T11:30:26.242Z,12.97
2019-03-15T11:33:03.406Z,13.38
2019-03-15T11:35:35.594Z,13.57
2019-03-15T11:38:15.354Z,13.26
2019-03-15T11:40:54.960Z,13.32
2019-03-15T11:43:26.039Z,13.28
2019-03-15T11:46:04.026Z,13.45
2019-03-15T11:48:38.414Z,13.50
2019-03-15T11:51:14.562Z,13.40
2019-03-15T11:53:51.786Z,13.09
2019-03-15T11:56:27.209Z,13.38
2019-03-15T11:59:02.911Z,13.27
2019-03-15T12:01:41.503Z,13.04
2019-03-15T12:04:28.881Z,12.92
2019-03-15T12:07:04.746Z,12.59
2019-03-15T12:09:40.995Z,12.54
2019-03-15T12:12:21.566Z,12.46
2019-03-15T12:14:56.516Z,12.37
2019-03-15T12:17:29.107Z,12.18
2019-03-15T12:20:03.624Z,12.31
2019-03-15T12:22:46.163Z,12.11
2019-03-15T12:25:25.570Z,11.82
2019-03-15T12:27:58.472Z,11.71
2019-03-15T12:30:42.888Z,11.39
2019-03-15T12:33:16.155Z,11.12
2019-03-15T12:35:58.267Z,10.98
2019-03-15T12:38:33.633Z,10.69
2019-03-15T12:41:06.357Z,10.63
2019-03-15T12:43:44.833Z,10.45
2019-03-15T12:46:18.024Z,10.46
2019-03-15T12:48:51.649Z,10.34
2019-03-15T12:51:34.340Z,10.39
2019-03-15T12:54:05.438Z,10.30
2019-03-15T12:56:52.922Z,10.18
2019-03-15T12:59:15.307Z,10.07
2019-03-15T13:01:51.878Z,9.82
2019-03-15T13:04:30.035Z,9.78
2019-03-15T13:07:02.223Z,9.89
2019-03-15T13:09:39.277Z,10.02
2019-03-15T13:12:11.339Z,9.94
2019-03-15T13:14:48.634Z,9.90
2019-03-15T13:17:26.183Z,9.81
2019-03-15T13:19:57.292Z,9.77
2019-03-15T13:22:26.984Z,9.85
2019-03-15T13:24:56.458Z,9.90
2019-03-15T13:27:26.062Z,9.85
2019-03-15T13:29:55.502Z,10.05
2019-03-15T13:32:24.966Z,10.11
2019-03-15T13:34:54.938Z,10.20
2019-03-15T13:37:24.412Z,10.38
2019-03-15T13:39:57.171Z,10.18
2019-03-15T13:42:26.704Z,10.11
2019-03-15T13:44:56.169Z,10.10
2019-03-15T13:47:25.636Z,9.98
2019-03-15T13:49:55.077Z,9.78
2019-03-15T13:52:24.536Z,9.60
2019-03-15T13:54:55.543Z,9.44
2019-03-15T13:57:25.462Z,9.36
2019-03-15T13:59:54.934Z,9.30
2019-03-15T14:02:24.751Z,9.27
2019-03-15T14:04:54.205Z,9.24
2019-03-15T14:07:23.675Z,9.21
2019-03-15T14:09:53.115Z,9.23
2019-03-15T14:12:22.571Z,9.19
2019-03-15T14:14:51.998Z,9.04
2019-03-15T14:17:21.477Z,8.94
2019-03-15T14:19:50.917Z,8.85
2019-03-15T14:22:20.363Z,8.84
2019-03-15T14:24:49.800Z,8.82
2019-03-15T14:27:19.244Z,8.78
2019-03-15T14:29:48.849Z,8.74
2019-03-15T14:32:18.297Z,8.64
2019-03-15T14:34:47.734Z,8.66
2019-03-15T14:37:17.387Z,8.56
2019-03-15T14:39:48.643Z,8.57
2019-03-15T14:42:18.135Z,8.59
2019-03-15T14:44:47.709Z,8.65
2019-03-15T14:47:17.449Z,8.72
2019-03-15T14:49:47.158Z,8.73
2019-03-15T14:52:16.676Z,8.75
2019-03-15T14:54:46.390Z,8.70
2019-03-15T14:57:17.811Z,8.72
2019-03-15T14:59:47.244Z,8.66
2019-03-15T15:02:16.687Z,8.72
2019-03-15T15:04:46.121Z,8.76
2019-03-15T15:07:15.596Z,8.79
2019-03-15T15:09:47.400Z,8.78
2019-03-15T15:12:23.261Z,8.79
2019-03-15T15:14:52.692Z,8.72
2019-03-15T15:17:22.156Z,8.74
2019-03-15T15:19:51.614Z,8.80
2019-03-15T15:22:21.331Z,8.80
2019-03-15T15:24:50.823Z,8.84
2019-03-15T15:27:20.909Z,8.79
2019-03-15T15:29:50.620Z,8.76
2019-03-15T15:32:20.054Z,8.80
2019-03-15T15:34:49.487Z,8.92
2019-03-15T15:37:18.921Z,9.04
2019-03-15T15:39:48.354Z,9.11
2019-03-15T15:42:17.809Z,9.23
2019-03-15T15:44:47.277Z,9.30
2019-03-15T15:47:16.967Z,9.41
2019-03-15T15:49:46.401Z,9.46
2019-03-15T15:52:15.853Z,9.59
2019-03-15T15:54:45.408Z,9.66
2019-03-15T15:57:14.807Z,9.70
2019-03-15T15:59:44.307Z,9.74
2019-03-15T16:02:13.742Z,9.80
2019-03-15T16:04:43.501Z,9.84
2019-03-15T16:07:13.013Z,9.84
2019-03-15T16:09:42.920Z,9.95
2019-03-15T16:12:12.727Z,9.94
2019-03-15T16:14:42.206Z,9.99
2019-03-15T16:17:11.706Z,10.05
2019-03-15T16:19:41.165Z,10.11
2019-03-15T16:22:10.603Z,10.15
2019-03-15T16:24:40.895Z,10.15
2019-03-15T16:27:11.006Z,10.15
2019-03-15T16:29:40.497Z,10.25
2019-03-15T16:32:10.183Z,10.26
2019-03-15T16:34:39.779Z,10.27
2019-03-15T16:37:10.169Z,10.18
2019-03-15T16:39:39.713Z,10.11
2019-03-15T16:42:09.187Z,10.13
2019-03-15T16:44:38.804Z,10.09
2019-03-15T16:47:08.251Z,10.24
2019-03-15T16:49:37.708Z,10.28
2019-03-15T16:52:07.223Z,10.32
2019-03-15T16:54:36.696Z,10.39
2019-03-15T16:57:06.202Z,10.45
2019-03-15T16:59:35.688Z,10.50
2019-03-15T17:02:05.208Z,10.53
2019-03-15T17:04:34.782Z,10.53
2019-03-15T17:07:04.303Z,10.56
2019-03-15T17:09:34.042Z,10.55
2019-03-15T17:12:03.474Z,10.59
2019-03-15T17:14:33.006Z,10.58
2019-03-15T17:17:02.452Z,10.63
2019-03-15T17:19:31.974Z,10.72
2019-03-15T17:22:01.434Z,10.72
2019-03-15T17:24:30.899Z,10.77
2019-03-15T17:27:00.350Z,10.84
2019-03-15T17:29:29.807Z,10.83
2019-03-15T17:31:59.520Z,10.83
2019-03-15T17:34:28.992Z,10.89
2019-03-15T17:37:06.682Z,11.02
2019-03-15T17:39:29.645Z,11.03
2019-03-15T17:41:59.145Z,11.06
2019-03-15T17:44:28.872Z,10.94
2019-03-15T17:46:58.324Z,10.93
2019-03-15T17:49:27.800Z,10.93
2019-03-15T17:51:57.267Z,11.01
2019-03-15T17:54:26.713Z,11.04
2019-03-15T17:56:56.167Z,11.07
2019-03-15T17:59:25.625Z,11.17
2019-03-15T18:01:55.059Z,11.23
2019-03-15T18:04:24.523Z,11.32
2019-03-15T18:06:54.247Z,11.42
2019-03-15T18:09:23.711Z,11.46
2019-03-15T18:11:53.161Z,11.55
2019-03-15T18:14:22.778Z,11.69
2019-03-15T18:16:52.214Z,11.88
2019-03-15T18:19:21.675Z,11.90
2019-03-15T18:21:51.359Z,11.76
2019-03-15T18:24:20.761Z,11.43
2019-03-15T18:26:50.202Z,11.19
2019-03-15T18:29:26.207Z,10.82
2019-03-15T18:31:50.786Z,9.88
2019-03-15T18:34:20.240Z,9.45
2019-03-15T18:36:49.685Z,9.20
2019-03-15T18:39:19.127Z,9.01
2019-03-15T18:41:50.498Z,8.89
2019-03-15T18:44:19.823Z,8.71
2019-03-15T18:46:49.368Z,8.61
2019-03-15T18:49:18.968Z,8.55
2019-03-15T18:51:48.410Z,8.47
2019-03-15T18:54:18.130Z,8.37
2019-03-15T18:56:47.963Z,8.36
2019-03-15T18:59:17.406Z,8.34
2019-03-15T19:01:46.839Z,8.30
2019-03-15T19:04:16.276Z,8.26
2019-03-15T19:06:45.717Z,8.19
2019-03-15T19:09:15.445Z,8.13
2019-03-15T19:11:44.894Z,8.13
2019-03-15T19:14:14.330Z,8.12
2019-03-15T19:16:43.807Z,8.05
2019-03-15T19:19:13.251Z,8.08
2019-03-15T19:21:42.975Z,8.08
2019-03-15T19:24:12.427Z,8.09
2019-03-15T19:26:41.907Z,8.03
2019-03-15T19:29:11.704Z,8.01
2019-03-15T19:31:41.375Z,7.96
2019-03-15T19:34:10.817Z,7.98
2019-03-15T19:36:43.355Z,7.94
2019-03-15T19:39:11.642Z,7.96
2019-03-15T19:41:41.090Z,7.97
2019-03-15T19:44:10.521Z,7.98
2019-03-15T19:46:39.983Z,8.01
2019-03-15T19:49:09.425Z,7.98
2019-03-15T19:51:39.099Z,8.01
2019-03-15T19:54:08.559Z,7.99
2019-03-15T19:56:38.014Z,8.01
2019-03-15T19:59:07.445Z,7.98
2019-03-15T20:01:36.991Z,8.03
2019-03-15T20:04:06.398Z,8.08
2019-03-15T20:06:35.841Z,8.11
2019-03-15T20:09:07.420Z,8.13
2019-03-15T20:11:37.233Z,8.15
2019-03-15T20:14:06.671Z,8.23
2019-03-15T20:16:36.118Z,8.30
2019-03-15T20:19:05.565Z,8.46
2019-03-15T20:21:35.034Z,8.20
2019-03-15T20:24:04.474Z,8.15
2019-03-15T20:26:33.921Z,8.15
2019-03-15T20:29:03.375Z,8.28
2019-03-15T20:31:32.952Z,8.30
2019-03-15T20:34:02.680Z,8.27
2019-03-15T20:36:32.401Z,8.21
2019-03-15T20:39:01.854Z,8.25
2019-03-15T20:41:31.451Z,8.32
2019-03-15T20:44:00.975Z,8.22
2019-03-15T20:46:35.663Z,8.19
2019-03-15T20:49:01.548Z,8.17
2019-03-15T20:51:31.288Z,8.16
2019-03-15T20:54:00.813Z,8.29
2019-03-15T20:56:30.251Z,8.32
2019-03-15T20:59:00.100Z,8.25
2019-03-15T21:01:29.671Z,8.22
2019-03-15T21:03:59.521Z,8.19
2019-03-15T21:06:29.003Z,8.12
2019-03-15T21:08:58.448Z,8.08
2019-03-15T21:11:27.900Z,8.10
2019-03-15T21:13:57.409Z,8.25
2019-03-15T21:16:27.379Z,8.18
2019-03-15T21:18:56.819Z,8.29
2019-03-15T21:21:26.271Z,8.26
2019-03-15T21:23:56.103Z,8.17
2019-03-15T21:26:25.618Z,8.10
2019-03-15T21:28:55.069Z,8.07
2019-03-15T21:31:24.598Z,8.11
2019-03-15T21:33:56.066Z,8.08
2019-03-15T21:36:25.508Z,8.13
2019-03-15T21:38:54.935Z,8.19
2019-03-15T21:41:24.392Z,8.11
2019-03-15T21:43:53.845Z,8.04
2019-03-15T21:46:23.322Z,8.04
2019-03-15T21:48:52.741Z,8.02
2019-03-15T21:51:22.196Z,8.02
2019-03-15T21:53:51.700Z,8.25
2019-03-15T21:56:21.142Z,8.32
2019-03-15T21:58:50.584Z,8.24
2019-03-15T22:01:20.060Z,8.14
2019-03-15T22:03:49.508Z,8.12
2019-03-15T22:06:19.126Z,8.14
2019-03-15T22:08:48.575Z,8.11
2019-03-15T22:11:21.503Z,8.09
2019-03-15T22:13:49.554Z,8.09
2019-03-15T22:16:18.987Z,7.95
2019-03-15T22:18:48.440Z,7.99
2019-03-15T22:21:17.876Z,7.88
2019-03-15T22:23:47.815Z,7.82
2019-03-15T22:26:17.378Z,7.88
2019-03-15T22:28:46.829Z,7.98
2019-03-15T22:31:17.148Z,7.98
2019-03-15T22:33:46.657Z,7.96
2019-03-15T22:36:16.121Z,8.07
2019-03-15T22:38:45.562Z,8.01
2019-03-15T22:41:15.016Z,7.91
2019-03-15T22:43:44.440Z,7.91
2019-03-15T22:46:14.130Z,7.78
2019-03-15T22:48:43.575Z,7.76
2019-03-15T22:51:13.070Z,7.74
2019-03-15T22:53:42.506Z,7.66
2019-03-15T22:56:11.969Z,7.65
2019-03-15T22:58:41.442Z,7.67
2019-03-15T23:01:11.084Z,7.66
2019-03-15T23:03:40.572Z,7.88
2019-03-15T23:06:09.981Z,7.87
2019-03-15T23:08:39.687Z,7.72
2019-03-15T23:11:09.126Z,7.66
2019-03-15T23:13:38.576Z,7.58
2019-03-15T23:16:08.373Z,7.52
2019-03-15T23:18:38.205Z,7.45
2019-03-15T23:21:07.638Z,7.44
2019-03-15T23:23:37.097Z,7.41
2019-03-15T23:26:06.580Z,7.42
2019-03-15T23:28:36.004Z,7.35
2019-03-15T23:31:05.535Z,7.26
2019-03-15T23:33:34.964Z,7.25
2019-03-15T23:36:04.410Z,7.41
2019-03-15T23:38:33.849Z,7.47
2019-03-15T23:41:03.293Z,7.58
2019-03-15T23:43:32.773Z,7.56
2019-03-15T23:46:02.386Z,7.51
2019-03-15T23:48:32.171Z,7.45
2019-03-15T23:51:01.618Z,7.36
2019-03-15T23:53:31.094Z,7.36
2019-03-15T23:56:00.615Z,7.47
2019-03-15T23:58:30.079Z,7.40
